sensor_id;sensor_type;location;lat;lon;timestamp;P1;durP1;ratioP1;P2;durP2;ratioP2
26050;SDS011;13825;53.496;10.020;2022-12-18T00:01:23;15.53;;;9.30;;
26050;SDS011;13825;53.496;10.020;2022-12-18T00:03:53;18.67;;;10.37;;
26050;SDS011;13825;53.496;10.020;2022-12-18T00:06:24;18.00;;;9.60;;
26050;SDS011;13825;53.496;10.020;2022-12-18T00:08:52;21.03;;;9.10;;
26050;SDS011;13825;53.496;10.020;2022-12-18T00:11:22;20.87;;;9.60;;
26050;SDS011;13825;53.496;10.020;2022-12-18T00:13:51;17.47;;;8.70;;
26050;SDS011;13825;53.496;10.020;2022-12-18T00:16:19;19.53;;;9.77;;
26050;SDS011;13825;53.496;10.020;2022-12-18T00:18:48;16.87;;;9.33;;
26050;SDS011;13825;53.496;10.020;2022-12-18T00:21:17;18.37;;;9.17;;
26050;SDS011;13825;53.496;10.020;2022-12-18T00:23:45;18.63;;;9.53;;
26050;SDS011;13825;53.496;10.020;2022-12-18T00:26:13;15.40;;;8.17;;
26050;SDS011;13825;53.496;10.020;2022-12-18T00:28:41;16.07;;;8.77;;
26050;SDS011;13825;53.496;10.020;2022-12-18T00:31:10;21.23;;;8.13;;
26050;SDS011;13825;53.496;10.020;2022-12-18T00:33:38;17.27;;;9.67;;
26050;SDS011;13825;53.496;10.020;2022-12-18T00:36:06;17.13;;;8.37;;
26050;SDS011;13825;53.496;10.020;2022-12-18T00:38:37;20.73;;;9.77;;
26050;SDS011;13825;53.496;10.020;2022-12-18T00:41:04;14.53;;;8.63;;
26050;SDS011;13825;53.496;10.020;2022-12-18T00:43:32;15.77;;;8.73;;
26050;SDS011;13825;53.496;10.020;2022-12-18T00:45:58;18.70;;;9.10;;
26050;SDS011;13825;53.496;10.020;2022-12-18T00:48:25;14.20;;;8.67;;
26050;SDS011;13825;53.496;10.020;2022-12-18T00:50:52;14.97;;;8.77;;
26050;SDS011;13825;53.496;10.020;2022-12-18T00:53:19;19.97;;;8.70;;
26050;SDS011;13825;53.496;10.020;2022-12-18T00:55:47;21.37;;;9.37;;
26050;SDS011;13825;53.496;10.020;2022-12-18T00:58:15;18.93;;;9.07;;
26050;SDS011;13825;53.496;10.020;2022-12-18T01:00:42;22.23;;;9.70;;
26050;SDS011;13825;53.496;10.020;2022-12-18T01:03:10;20.67;;;9.03;;
26050;SDS011;13825;53.496;10.020;2022-12-18T01:05:40;24.10;;;9.00;;
26050;SDS011;13825;53.496;10.020;2022-12-18T01:08:07;17.07;;;8.67;;
26050;SDS011;13825;53.496;10.020;2022-12-18T01:10:34;17.77;;;8.80;;
26050;SDS011;13825;53.496;10.020;2022-12-18T01:13:02;15.33;;;9.20;;
26050;SDS011;13825;53.496;10.020;2022-12-18T01:15:29;21.50;;;9.20;;
26050;SDS011;13825;53.496;10.020;2022-12-18T01:17:56;17.47;;;9.73;;
26050;SDS011;13825;53.496;10.020;2022-12-18T01:20:23;19.80;;;8.63;;
26050;SDS011;13825;53.496;10.020;2022-12-18T01:22:50;17.57;;;9.27;;
26050;SDS011;13825;53.496;10.020;2022-12-18T01:25:17;18.67;;;9.17;;
26050;SDS011;13825;53.496;10.020;2022-12-18T01:27:44;18.23;;;8.83;;
26050;SDS011;13825;53.496;10.020;2022-12-18T01:30:12;17.27;;;9.90;;
26050;SDS011;13825;53.496;10.020;2022-12-18T01:32:39;18.37;;;10.33;;
26050;SDS011;13825;53.496;10.020;2022-12-18T01:35:07;16.47;;;9.77;;
26050;SDS011;13825;53.496;10.020;2022-12-18T01:37:34;17.57;;;9.00;;
26050;SDS011;13825;53.496;10.020;2022-12-18T01:40:01;21.83;;;9.73;;
26050;SDS011;13825;53.496;10.020;2022-12-18T01:42:28;21.60;;;9.90;;
26050;SDS011;13825;53.496;10.020;2022-12-18T01:45:00;17.23;;;8.17;;
26050;SDS011;13825;53.496;10.020;2022-12-18T01:47:34;18.20;;;9.87;;
26050;SDS011;13825;53.496;10.020;2022-12-18T01:50:04;16.30;;;9.50;;
26050;SDS011;13825;53.496;10.020;2022-12-18T01:52:35;13.77;;;8.40;;
26050;SDS011;13825;53.496;10.020;2022-12-18T01:55:03;16.77;;;9.40;;
26050;SDS011;13825;53.496;10.020;2022-12-18T01:57:32;15.93;;;7.63;;
26050;SDS011;13825;53.496;10.020;2022-12-18T02:00:00;15.30;;;9.23;;
26050;SDS011;13825;53.496;10.020;2022-12-18T02:02:30;15.10;;;8.37;;
26050;SDS011;13825;53.496;10.020;2022-12-18T02:04:59;16.90;;;9.33;;
26050;SDS011;13825;53.496;10.020;2022-12-18T02:07:29;18.00;;;9.37;;
26050;SDS011;13825;53.496;10.020;2022-12-18T02:10:03;15.63;;;8.80;;
26050;SDS011;13825;53.496;10.020;2022-12-18T02:12:39;21.37;;;10.10;;
26050;SDS011;13825;53.496;10.020;2022-12-18T02:15:13;19.00;;;9.07;;
26050;SDS011;13825;53.496;10.020;2022-12-18T02:17:47;22.43;;;9.47;;
26050;SDS011;13825;53.496;10.020;2022-12-18T02:20:19;14.50;;;8.93;;
26050;SDS011;13825;53.496;10.020;2022-12-18T02:22:58;14.80;;;7.60;;
26050;SDS011;13825;53.496;10.020;2022-12-18T02:25:51;14.97;;;8.53;;
26050;SDS011;13825;53.496;10.020;2022-12-18T02:28:30;15.53;;;7.20;;
26050;SDS011;13825;53.496;10.020;2022-12-18T02:31:01;15.00;;;7.20;;
26050;SDS011;13825;53.496;10.020;2022-12-18T02:33:31;26.30;;;8.93;;
26050;SDS011;13825;53.496;10.020;2022-12-18T02:36:02;12.47;;;6.80;;
26050;SDS011;13825;53.496;10.020;2022-12-18T02:38:30;11.80;;;7.30;;
26050;SDS011;13825;53.496;10.020;2022-12-18T02:41:01;17.73;;;9.27;;
26050;SDS011;13825;53.496;10.020;2022-12-18T02:43:29;19.30;;;8.03;;
26050;SDS011;13825;53.496;10.020;2022-12-18T02:45:57;14.40;;;8.97;;
26050;SDS011;13825;53.496;10.020;2022-12-18T02:48:26;18.20;;;9.20;;
26050;SDS011;13825;53.496;10.020;2022-12-18T02:50:58;16.77;;;8.73;;
26050;SDS011;13825;53.496;10.020;2022-12-18T02:53:30;18.47;;;9.23;;
26050;SDS011;13825;53.496;10.020;2022-12-18T02:56:04;14.13;;;8.33;;
26050;SDS011;13825;53.496;10.020;2022-12-18T02:58:37;14.70;;;7.33;;
26050;SDS011;13825;53.496;10.020;2022-12-18T03:01:13;12.80;;;7.73;;
26050;SDS011;13825;53.496;10.020;2022-12-18T03:03:46;13.93;;;8.07;;
26050;SDS011;13825;53.496;10.020;2022-12-18T03:06:18;16.20;;;8.10;;
26050;SDS011;13825;53.496;10.020;2022-12-18T03:08:51;14.77;;;7.37;;
26050;SDS011;13825;53.496;10.020;2022-12-18T03:11:25;16.00;;;8.30;;
26050;SDS011;13825;53.496;10.020;2022-12-18T03:14:07;13.13;;;6.83;;
26050;SDS011;13825;53.496;10.020;2022-12-18T03:16:36;21.10;;;8.80;;
26050;SDS011;13825;53.496;10.020;2022-12-18T03:19:06;11.50;;;6.67;;
26050;SDS011;13825;53.496;10.020;2022-12-18T03:21:38;15.07;;;7.77;;
26050;SDS011;13825;53.496;10.020;2022-12-18T03:24:10;12.00;;;7.23;;
26050;SDS011;13825;53.496;10.020;2022-12-18T03:26:40;18.40;;;8.87;;
26050;SDS011;13825;53.496;10.020;2022-12-18T03:29:12;13.03;;;7.93;;
26050;SDS011;13825;53.496;10.020;2022-12-18T03:31:42;16.27;;;8.60;;
26050;SDS011;13825;53.496;10.020;2022-12-18T03:34:16;13.53;;;7.60;;
26050;SDS011;13825;53.496;10.020;2022-12-18T03:36:49;11.83;;;6.93;;
26050;SDS011;13825;53.496;10.020;2022-12-18T03:39:16;13.07;;;7.60;;
26050;SDS011;13825;53.496;10.020;2022-12-18T03:41:44;17.07;;;8.03;;
26050;SDS011;13825;53.496;10.020;2022-12-18T03:44:18;12.27;;;7.40;;
26050;SDS011;13825;53.496;10.020;2022-12-18T03:46:49;13.43;;;7.77;;
26050;SDS011;13825;53.496;10.020;2022-12-18T03:49:23;12.40;;;7.23;;
26050;SDS011;13825;53.496;10.020;2022-12-18T03:51:57;12.83;;;7.13;;
26050;SDS011;13825;53.496;10.020;2022-12-18T03:54:28;13.37;;;7.47;;
26050;SDS011;13825;53.496;10.020;2022-12-18T03:56:59;15.73;;;7.73;;
26050;SDS011;13825;53.496;10.020;2022-12-18T03:59:31;12.63;;;7.03;;
26050;SDS011;13825;53.496;10.020;2022-12-18T04:02:00;19.83;;;8.30;;
26050;SDS011;13825;53.496;10.020;2022-12-18T04:04:29;14.13;;;7.43;;
26050;SDS011;13825;53.496;10.020;2022-12-18T04:06:57;18.33;;;6.30;;
26050;SDS011;13825;53.496;10.020;2022-12-18T04:09:25;12.13;;;6.97;;
26050;SDS011;13825;53.496;10.020;2022-12-18T04:11:53;15.03;;;8.00;;
26050;SDS011;13825;53.496;10.020;2022-12-18T04:14:23;12.40;;;7.03;;
26050;SDS011;13825;53.496;10.020;2022-12-18T04:16:50;10.07;;;7.27;;
26050;SDS011;13825;53.496;10.020;2022-12-18T04:19:17;10.47;;;6.17;;
26050;SDS011;13825;53.496;10.020;2022-12-18T04:21:44;12.27;;;6.23;;
26050;SDS011;13825;53.496;10.020;2022-12-18T04:24:10;13.60;;;6.50;;
26050;SDS011;13825;53.496;10.020;2022-12-18T04:26:37;14.43;;;6.67;;
26050;SDS011;13825;53.496;10.020;2022-12-18T04:29:04;15.43;;;7.93;;
26050;SDS011;13825;53.496;10.020;2022-12-18T04:31:32;20.67;;;7.13;;
26050;SDS011;13825;53.496;10.020;2022-12-18T04:33:59;16.57;;;7.80;;
26050;SDS011;13825;53.496;10.020;2022-12-18T04:36:26;13.33;;;7.17;;
26050;SDS011;13825;53.496;10.020;2022-12-18T04:38:54;14.30;;;7.63;;
26050;SDS011;13825;53.496;10.020;2022-12-18T04:41:22;15.33;;;8.30;;
26050;SDS011;13825;53.496;10.020;2022-12-18T04:43:49;14.07;;;7.77;;
26050;SDS011;13825;53.496;10.020;2022-12-18T04:46:16;12.80;;;7.20;;
26050;SDS011;13825;53.496;10.020;2022-12-18T04:48:44;13.50;;;7.70;;
26050;SDS011;13825;53.496;10.020;2022-12-18T04:51:12;13.60;;;6.80;;
26050;SDS011;13825;53.496;10.020;2022-12-18T04:53:39;9.00;;;5.83;;
26050;SDS011;13825;53.496;10.020;2022-12-18T04:56:07;12.67;;;6.00;;
26050;SDS011;13825;53.496;10.020;2022-12-18T04:58:35;13.33;;;6.43;;
26050;SDS011;13825;53.496;10.020;2022-12-18T05:01:02;11.90;;;6.47;;
26050;SDS011;13825;53.496;10.020;2022-12-18T05:03:29;11.03;;;6.80;;
26050;SDS011;13825;53.496;10.020;2022-12-18T05:05:58;10.63;;;5.93;;
26050;SDS011;13825;53.496;10.020;2022-12-18T05:08:25;9.73;;;5.57;;
26050;SDS011;13825;53.496;10.020;2022-12-18T05:10:57;11.37;;;6.43;;
26050;SDS011;13825;53.496;10.020;2022-12-18T05:13:25;15.40;;;6.00;;
26050;SDS011;13825;53.496;10.020;2022-12-18T05:15:52;15.20;;;6.20;;
26050;SDS011;13825;53.496;10.020;2022-12-18T05:18:19;14.27;;;6.80;;
26050;SDS011;13825;53.496;10.020;2022-12-18T05:20:46;16.30;;;6.53;;
26050;SDS011;13825;53.496;10.020;2022-12-18T05:23:14;7.40;;;5.83;;
26050;SDS011;13825;53.496;10.020;2022-12-18T05:25:41;13.43;;;5.77;;
26050;SDS011;13825;53.496;10.020;2022-12-18T05:28:08;14.20;;;6.70;;
26050;SDS011;13825;53.496;10.020;2022-12-18T05:30:35;15.70;;;7.50;;
26050;SDS011;13825;53.496;10.020;2022-12-18T05:33:01;15.00;;;7.17;;
26050;SDS011;13825;53.496;10.020;2022-12-18T05:35:28;9.03;;;5.40;;
26050;SDS011;13825;53.496;10.020;2022-12-18T05:37:55;14.23;;;7.00;;
26050;SDS011;13825;53.496;10.020;2022-12-18T05:40:24;10.80;;;6.40;;
26050;SDS011;13825;53.496;10.020;2022-12-18T05:42:50;11.57;;;5.87;;
26050;SDS011;13825;53.496;10.020;2022-12-18T05:45:17;13.60;;;6.37;;
26050;SDS011;13825;53.496;10.020;2022-12-18T05:47:45;8.23;;;5.50;;
26050;SDS011;13825;53.496;10.020;2022-12-18T05:50:12;11.07;;;6.00;;
26050;SDS011;13825;53.496;10.020;2022-12-18T05:52:39;13.03;;;6.70;;
26050;SDS011;13825;53.496;10.020;2022-12-18T05:55:06;11.20;;;5.63;;
26050;SDS011;13825;53.496;10.020;2022-12-18T05:57:34;9.23;;;5.57;;
26050;SDS011;13825;53.496;10.020;2022-12-18T06:00:02;11.33;;;5.77;;
26050;SDS011;13825;53.496;10.020;2022-12-18T06:02:29;13.33;;;7.17;;
26050;SDS011;13825;53.496;10.020;2022-12-18T06:04:56;16.63;;;6.57;;
26050;SDS011;13825;53.496;10.020;2022-12-18T06:07:23;9.73;;;5.93;;
26050;SDS011;13825;53.496;10.020;2022-12-18T06:09:49;14.47;;;6.27;;
26050;SDS011;13825;53.496;10.020;2022-12-18T06:12:16;11.60;;;6.50;;
26050;SDS011;13825;53.496;10.020;2022-12-18T06:14:45;8.73;;;5.17;;
26050;SDS011;13825;53.496;10.020;2022-12-18T06:17:11;10.90;;;5.47;;
26050;SDS011;13825;53.496;10.020;2022-12-18T06:19:38;13.97;;;7.47;;
26050;SDS011;13825;53.496;10.020;2022-12-18T06:22:05;13.30;;;6.50;;
26050;SDS011;13825;53.496;10.020;2022-12-18T06:24:32;13.60;;;7.20;;
26050;SDS011;13825;53.496;10.020;2022-12-18T06:26:59;11.17;;;6.47;;
26050;SDS011;13825;53.496;10.020;2022-12-18T06:29:26;9.40;;;5.97;;
26050;SDS011;13825;53.496;10.020;2022-12-18T06:31:54;13.67;;;6.80;;
26050;SDS011;13825;53.496;10.020;2022-12-18T06:34:21;12.23;;;6.27;;
26050;SDS011;13825;53.496;10.020;2022-12-18T06:36:48;10.37;;;5.80;;
26050;SDS011;13825;53.496;10.020;2022-12-18T06:39:14;12.83;;;6.90;;
26050;SDS011;13825;53.496;10.020;2022-12-18T06:41:41;12.77;;;6.60;;
26050;SDS011;13825;53.496;10.020;2022-12-18T06:44:08;14.27;;;6.50;;
26050;SDS011;13825;53.496;10.020;2022-12-18T06:46:35;11.17;;;6.57;;
26050;SDS011;13825;53.496;10.020;2022-12-18T06:49:04;11.40;;;6.50;;
26050;SDS011;13825;53.496;10.020;2022-12-18T06:51:31;11.37;;;6.07;;
26050;SDS011;13825;53.496;10.020;2022-12-18T06:53:58;9.93;;;7.00;;
26050;SDS011;13825;53.496;10.020;2022-12-18T06:56:25;13.73;;;7.27;;
26050;SDS011;13825;53.496;10.020;2022-12-18T06:58:53;14.37;;;6.93;;
26050;SDS011;13825;53.496;10.020;2022-12-18T07:01:20;10.50;;;6.33;;
26050;SDS011;13825;53.496;10.020;2022-12-18T07:03:51;14.90;;;6.93;;
26050;SDS011;13825;53.496;10.020;2022-12-18T07:06:20;13.30;;;6.93;;
26050;SDS011;13825;53.496;10.020;2022-12-18T07:08:49;9.33;;;6.10;;
26050;SDS011;13825;53.496;10.020;2022-12-18T07:11:17;12.93;;;7.10;;
26050;SDS011;13825;53.496;10.020;2022-12-18T07:13:44;16.93;;;7.43;;
26050;SDS011;13825;53.496;10.020;2022-12-18T07:16:12;12.23;;;7.50;;
26050;SDS011;13825;53.496;10.020;2022-12-18T07:18:41;14.03;;;6.67;;
26050;SDS011;13825;53.496;10.020;2022-12-18T07:21:09;13.70;;;7.10;;
26050;SDS011;13825;53.496;10.020;2022-12-18T07:23:39;19.57;;;7.67;;
26050;SDS011;13825;53.496;10.020;2022-12-18T07:26:06;17.63;;;7.93;;
26050;SDS011;13825;53.496;10.020;2022-12-18T07:28:35;12.47;;;7.97;;
26050;SDS011;13825;53.496;10.020;2022-12-18T07:31:03;15.97;;;7.33;;
26050;SDS011;13825;53.496;10.020;2022-12-18T07:33:31;16.10;;;7.97;;
26050;SDS011;13825;53.496;10.020;2022-12-18T07:35:58;16.67;;;6.93;;
26050;SDS011;13825;53.496;10.020;2022-12-18T07:38:25;18.87;;;7.30;;
26050;SDS011;13825;53.496;10.020;2022-12-18T07:40:53;15.10;;;7.13;;
26050;SDS011;13825;53.496;10.020;2022-12-18T07:43:20;15.43;;;8.30;;
26050;SDS011;13825;53.496;10.020;2022-12-18T07:45:48;14.70;;;7.40;;
26050;SDS011;13825;53.496;10.020;2022-12-18T07:48:15;14.03;;;7.27;;
26050;SDS011;13825;53.496;10.020;2022-12-18T07:50:42;11.60;;;6.73;;
26050;SDS011;13825;53.496;10.020;2022-12-18T07:53:09;17.40;;;7.77;;
26050;SDS011;13825;53.496;10.020;2022-12-18T07:55:36;12.90;;;6.57;;
26050;SDS011;13825;53.496;10.020;2022-12-18T07:58:05;13.63;;;6.33;;
26050;SDS011;13825;53.496;10.020;2022-12-18T08:00:32;11.70;;;7.50;;
26050;SDS011;13825;53.496;10.020;2022-12-18T08:03:00;14.37;;;6.87;;
26050;SDS011;13825;53.496;10.020;2022-12-18T08:05:27;13.17;;;7.23;;
26050;SDS011;13825;53.496;10.020;2022-12-18T08:07:54;11.20;;;7.40;;
26050;SDS011;13825;53.496;10.020;2022-12-18T08:10:21;13.73;;;7.67;;
26050;SDS011;13825;53.496;10.020;2022-12-18T08:12:48;10.83;;;6.80;;
26050;SDS011;13825;53.496;10.020;2022-12-18T08:15:17;12.43;;;8.03;;
26050;SDS011;13825;53.496;10.020;2022-12-18T08:17:44;18.57;;;7.87;;
26050;SDS011;13825;53.496;10.020;2022-12-18T08:20:11;14.77;;;8.33;;
26050;SDS011;13825;53.496;10.020;2022-12-18T08:22:39;15.97;;;7.60;;
26050;SDS011;13825;53.496;10.020;2022-12-18T08:25:06;20.40;;;8.93;;
26050;SDS011;13825;53.496;10.020;2022-12-18T08:27:33;17.40;;;9.53;;
26050;SDS011;13825;53.496;10.020;2022-12-18T08:30:00;13.17;;;7.63;;
26050;SDS011;13825;53.496;10.020;2022-12-18T08:32:29;14.97;;;8.37;;
26050;SDS011;13825;53.496;10.020;2022-12-18T08:34:57;15.97;;;8.87;;
26050;SDS011;13825;53.496;10.020;2022-12-18T08:37:24;17.97;;;9.00;;
26050;SDS011;13825;53.496;10.020;2022-12-18T08:39:54;16.77;;;7.87;;
26050;SDS011;13825;53.496;10.020;2022-12-18T08:42:21;15.50;;;7.30;;
26050;SDS011;13825;53.496;10.020;2022-12-18T08:45:06;17.33;;;8.23;;
26050;SDS011;13825;53.496;10.020;2022-12-18T08:47:35;15.23;;;7.83;;
26050;SDS011;13825;53.496;10.020;2022-12-18T08:50:02;15.07;;;7.30;;
26050;SDS011;13825;53.496;10.020;2022-12-18T08:52:31;12.77;;;7.90;;
26050;SDS011;13825;53.496;10.020;2022-12-18T08:54:58;13.23;;;8.00;;
26050;SDS011;13825;53.496;10.020;2022-12-18T08:57:25;14.50;;;8.27;;
26050;SDS011;13825;53.496;10.020;2022-12-18T08:59:52;16.60;;;8.43;;
26050;SDS011;13825;53.496;10.020;2022-12-18T09:02:19;14.93;;;7.57;;
26050;SDS011;13825;53.496;10.020;2022-12-18T09:04:47;12.33;;;6.90;;
26050;SDS011;13825;53.496;10.020;2022-12-18T09:07:14;13.90;;;7.60;;
26050;SDS011;13825;53.496;10.020;2022-12-18T09:09:41;18.13;;;9.00;;
26050;SDS011;13825;53.496;10.020;2022-12-18T09:12:08;14.67;;;8.90;;
26050;SDS011;13825;53.496;10.020;2022-12-18T09:14:35;20.67;;;9.10;;
26050;SDS011;13825;53.496;10.020;2022-12-18T09:17:02;17.77;;;9.40;;
26050;SDS011;13825;53.496;10.020;2022-12-18T09:19:29;17.43;;;9.60;;
26050;SDS011;13825;53.496;10.020;2022-12-18T09:21:58;18.07;;;9.40;;
26050;SDS011;13825;53.496;10.020;2022-12-18T09:24:25;17.10;;;8.27;;
26050;SDS011;13825;53.496;10.020;2022-12-18T09:26:52;15.90;;;7.87;;
26050;SDS011;13825;53.496;10.020;2022-12-18T09:29:20;20.93;;;8.57;;
26050;SDS011;13825;53.496;10.020;2022-12-18T09:31:47;14.13;;;8.37;;
26050;SDS011;13825;53.496;10.020;2022-12-18T09:34:14;19.43;;;10.20;;
26050;SDS011;13825;53.496;10.020;2022-12-18T09:36:41;19.83;;;9.03;;
26050;SDS011;13825;53.496;10.020;2022-12-18T09:39:10;14.97;;;9.23;;
26050;SDS011;13825;53.496;10.020;2022-12-18T09:41:44;17.60;;;8.57;;
26050;SDS011;13825;53.496;10.020;2022-12-18T09:44:19;16.33;;;9.33;;
26050;SDS011;13825;53.496;10.020;2022-12-18T09:46:51;21.40;;;8.50;;
26050;SDS011;13825;53.496;10.020;2022-12-18T09:49:23;24.80;;;9.27;;
26050;SDS011;13825;53.496;10.020;2022-12-18T09:51:55;22.90;;;10.37;;
26050;SDS011;13825;53.496;10.020;2022-12-18T09:54:29;16.17;;;9.03;;
26050;SDS011;13825;53.496;10.020;2022-12-18T09:57:01;17.60;;;8.50;;
26050;SDS011;13825;53.496;10.020;2022-12-18T09:59:30;16.97;;;9.90;;
26050;SDS011;13825;53.496;10.020;2022-12-18T10:02:05;19.97;;;9.13;;
26050;SDS011;13825;53.496;10.020;2022-12-18T10:04:40;25.33;;;10.17;;
26050;SDS011;13825;53.496;10.020;2022-12-18T10:07:08;24.67;;;10.07;;
26050;SDS011;13825;53.496;10.020;2022-12-18T10:09:46;25.47;;;10.27;;
26050;SDS011;13825;53.496;10.020;2022-12-18T10:12:23;16.63;;;9.60;;
26050;SDS011;13825;53.496;10.020;2022-12-18T10:14:59;19.67;;;10.43;;
26050;SDS011;13825;53.496;10.020;2022-12-18T10:17:35;21.73;;;9.67;;
26050;SDS011;13825;53.496;10.020;2022-12-18T10:20:10;21.53;;;10.67;;
26050;SDS011;13825;53.496;10.020;2022-12-18T10:22:48;24.43;;;10.23;;
26050;SDS011;13825;53.496;10.020;2022-12-18T10:25:23;19.40;;;10.60;;
26050;SDS011;13825;53.496;10.020;2022-12-18T10:27:54;19.30;;;9.67;;
26050;SDS011;13825;53.496;10.020;2022-12-18T10:30:24;18.90;;;10.53;;
26050;SDS011;13825;53.496;10.020;2022-12-18T10:32:51;20.27;;;10.00;;
26050;SDS011;13825;53.496;10.020;2022-12-18T10:35:20;20.87;;;10.83;;
26050;SDS011;13825;53.496;10.020;2022-12-18T10:38:02;17.77;;;9.60;;
26050;SDS011;13825;53.496;10.020;2022-12-18T10:40:32;19.43;;;10.67;;
26050;SDS011;13825;53.496;10.020;2022-12-18T10:43:14;20.50;;;10.57;;
26050;SDS011;13825;53.496;10.020;2022-12-18T10:45:42;19.17;;;10.43;;
26050;SDS011;13825;53.496;10.020;2022-12-18T10:48:24;21.47;;;9.97;;
26050;SDS011;13825;53.496;10.020;2022-12-18T10:50:55;17.57;;;9.10;;
26050;SDS011;13825;53.496;10.020;2022-12-18T10:53:24;21.60;;;10.63;;
26050;SDS011;13825;53.496;10.020;2022-12-18T10:55:55;20.63;;;10.07;;
26050;SDS011;13825;53.496;10.020;2022-12-18T10:58:25;18.03;;;9.03;;
26050;SDS011;13825;53.496;10.020;2022-12-18T11:01:04;19.67;;;8.53;;
26050;SDS011;13825;53.496;10.020;2022-12-18T11:03:41;19.63;;;10.17;;
26050;SDS011;13825;53.496;10.020;2022-12-18T11:06:15;22.83;;;10.43;;
26050;SDS011;13825;53.496;10.020;2022-12-18T11:09:18;17.90;;;8.83;;
26050;SDS011;13825;53.496;10.020;2022-12-18T11:12:15;21.93;;;10.67;;
26050;SDS011;13825;53.496;10.020;2022-12-18T11:14:46;19.30;;;8.63;;
26050;SDS011;13825;53.496;10.020;2022-12-18T11:17:27;21.10;;;10.47;;
26050;SDS011;13825;53.496;10.020;2022-12-18T11:20:02;20.53;;;9.70;;
26050;SDS011;13825;53.496;10.020;2022-12-18T11:22:35;16.87;;;9.33;;
26050;SDS011;13825;53.496;10.020;2022-12-18T11:25:16;23.13;;;10.47;;
26050;SDS011;13825;53.496;10.020;2022-12-18T11:27:51;26.57;;;10.37;;
26050;SDS011;13825;53.496;10.020;2022-12-18T11:30:21;21.17;;;10.43;;
26050;SDS011;13825;53.496;10.020;2022-12-18T11:32:56;19.87;;;10.13;;
26050;SDS011;13825;53.496;10.020;2022-12-18T11:38:17;20.83;;;9.70;;
26050;SDS011;13825;53.496;10.020;2022-12-18T11:40:51;21.73;;;8.93;;
26050;SDS011;13825;53.496;10.020;2022-12-18T11:43:27;22.37;;;10.00;;
26050;SDS011;13825;53.496;10.020;2022-12-18T11:46:00;17.27;;;9.33;;
26050;SDS011;13825;53.496;10.020;2022-12-18T11:48:34;20.40;;;9.80;;
26050;SDS011;13825;53.496;10.020;2022-12-18T11:51:13;17.33;;;8.93;;
26050;SDS011;13825;53.496;10.020;2022-12-18T11:53:45;18.87;;;9.43;;
26050;SDS011;13825;53.496;10.020;2022-12-18T11:56:20;18.60;;;9.63;;
26050;SDS011;13825;53.496;10.020;2022-12-18T11:59:00;22.37;;;10.87;;
26050;SDS011;13825;53.496;10.020;2022-12-18T12:01:42;22.10;;;10.07;;
26050;SDS011;13825;53.496;10.020;2022-12-18T12:04:22;20.43;;;10.20;;
26050;SDS011;13825;53.496;10.020;2022-12-18T12:07:22;18.37;;;8.93;;
26050;SDS011;13825;53.496;10.020;2022-12-18T12:10:13;17.17;;;9.13;;
26050;SDS011;13825;53.496;10.020;2022-12-18T12:12:54;20.90;;;9.57;;
26050;SDS011;13825;53.496;10.020;2022-12-18T12:15:49;20.13;;;10.17;;
26050;SDS011;13825;53.496;10.020;2022-12-18T12:18:32;25.10;;;10.17;;
26050;SDS011;13825;53.496;10.020;2022-12-18T12:21:11;21.43;;;10.97;;
26050;SDS011;13825;53.496;10.020;2022-12-18T12:23:58;19.80;;;11.17;;
26050;SDS011;13825;53.496;10.020;2022-12-18T12:26:45;19.57;;;10.17;;
26050;SDS011;13825;53.496;10.020;2022-12-18T12:29:23;15.70;;;9.03;;
26050;SDS011;13825;53.496;10.020;2022-12-18T12:32:10;19.17;;;9.13;;
26050;SDS011;13825;53.496;10.020;2022-12-18T12:37:45;20.30;;;10.10;;
26050;SDS011;13825;53.496;10.020;2022-12-18T12:40:26;19.03;;;10.60;;
26050;SDS011;13825;53.496;10.020;2022-12-18T12:43:07;21.93;;;10.30;;
26050;SDS011;13825;53.496;10.020;2022-12-18T12:45:45;20.27;;;9.30;;
26050;SDS011;13825;53.496;10.020;2022-12-18T12:51:12;23.03;;;10.37;;
26050;SDS011;13825;53.496;10.020;2022-12-18T12:53:49;21.10;;;9.37;;
26050;SDS011;13825;53.496;10.020;2022-12-18T12:56:29;18.57;;;9.63;;
26050;SDS011;13825;53.496;10.020;2022-12-18T12:59:08;19.60;;;10.10;;
26050;SDS011;13825;53.496;10.020;2022-12-18T13:02:06;23.23;;;11.10;;
26050;SDS011;13825;53.496;10.020;2022-12-18T13:04:57;21.07;;;9.67;;
26050;SDS011;13825;53.496;10.020;2022-12-18T13:08:51;24.33;;;10.03;;
26050;SDS011;13825;53.496;10.020;2022-12-18T13:11:32;16.27;;;8.63;;
26050;SDS011;13825;53.496;10.020;2022-12-18T13:14:42;21.50;;;9.40;;
26050;SDS011;13825;53.496;10.020;2022-12-18T13:17:31;22.90;;;10.93;;
26050;SDS011;13825;53.496;10.020;2022-12-18T13:20:36;24.67;;;10.57;;
26050;SDS011;13825;53.496;10.020;2022-12-18T13:23:30;27.60;;;10.53;;
26050;SDS011;13825;53.496;10.020;2022-12-18T13:29:45;18.67;;;9.53;;
26050;SDS011;13825;53.496;10.020;2022-12-18T13:32:38;20.03;;;10.53;;
26050;SDS011;13825;53.496;10.020;2022-12-18T13:49:21;24.87;;;10.17;;
26050;SDS011;13825;53.496;10.020;2022-12-18T13:52:15;23.27;;;10.17;;
26050;SDS011;13825;53.496;10.020;2022-12-18T13:54:51;20.10;;;9.70;;
26050;SDS011;13825;53.496;10.020;2022-12-18T13:57:47;27.27;;;11.33;;
26050;SDS011;13825;53.496;10.020;2022-12-18T14:00:31;23.70;;;9.77;;
26050;SDS011;13825;53.496;10.020;2022-12-18T14:03:15;17.60;;;9.17;;
26050;SDS011;13825;53.496;10.020;2022-12-18T14:06:13;21.03;;;10.67;;
26050;SDS011;13825;53.496;10.020;2022-12-18T14:08:45;21.70;;;9.10;;
26050;SDS011;13825;53.496;10.020;2022-12-18T14:11:18;19.47;;;10.67;;
26050;SDS011;13825;53.496;10.020;2022-12-18T14:13:48;25.37;;;10.07;;
26050;SDS011;13825;53.496;10.020;2022-12-18T14:16:18;26.00;;;11.00;;
26050;SDS011;13825;53.496;10.020;2022-12-18T14:18:52;26.07;;;10.70;;
26050;SDS011;13825;53.496;10.020;2022-12-18T14:21:26;21.47;;;10.43;;
26050;SDS011;13825;53.496;10.020;2022-12-18T14:24:11;27.00;;;11.23;;
26050;SDS011;13825;53.496;10.020;2022-12-18T14:26:40;25.90;;;11.40;;
26050;SDS011;13825;53.496;10.020;2022-12-18T14:29:19;28.53;;;11.17;;
26050;SDS011;13825;53.496;10.020;2022-12-18T14:32:12;25.47;;;10.70;;
26050;SDS011;13825;53.496;10.020;2022-12-18T14:34:42;19.57;;;9.23;;
26050;SDS011;13825;53.496;10.020;2022-12-18T14:37:21;27.70;;;11.90;;
26050;SDS011;13825;53.496;10.020;2022-12-18T14:43:17;29.13;;;11.27;;
26050;SDS011;13825;53.496;10.020;2022-12-18T14:45:53;28.80;;;11.17;;
26050;SDS011;13825;53.496;10.020;2022-12-18T14:48:30;24.27;;;11.50;;
26050;SDS011;13825;53.496;10.020;2022-12-18T14:51:03;23.30;;;10.73;;
26050;SDS011;13825;53.496;10.020;2022-12-18T14:53:39;26.67;;;12.77;;
26050;SDS011;13825;53.496;10.020;2022-12-18T14:56:16;21.17;;;9.93;;
26050;SDS011;13825;53.496;10.020;2022-12-18T14:58:47;26.93;;;11.13;;
26050;SDS011;13825;53.496;10.020;2022-12-18T15:01:21;28.67;;;11.87;;
26050;SDS011;13825;53.496;10.020;2022-12-18T15:03:51;22.37;;;10.37;;
26050;SDS011;13825;53.496;10.020;2022-12-18T15:06:26;23.60;;;11.53;;
26050;SDS011;13825;53.496;10.020;2022-12-18T15:08:57;27.87;;;10.57;;
26050;SDS011;13825;53.496;10.020;2022-12-18T15:11:26;30.77;;;12.10;;
26050;SDS011;13825;53.496;10.020;2022-12-18T15:17:06;20.93;;;10.17;;
26050;SDS011;13825;53.496;10.020;2022-12-18T15:19:43;25.50;;;12.80;;